Time;durP1;ratioP1;P1;durP2;ratioP2;P2;SDS_P1;SDS_P2;PMS_P1;PMS_P2;Temp;Humidity;BMP_temperature;BMP_pressure;BME280_temperature;BME280_humidity;BME280_pressure;Samples;Min_cycle;Max_cycle;Signal;HPM_P1;HPM_P2
2023/09/20 00:00:27;;;;;;;2.55;1.13;;;13.40;99.90;;;;;;5107976;28;20033;-62
2023/09/20 00:02:53;;;;;;;2.22;0.98;;;13.30;99.90;;;;;;5073642;28;20427;-62
2023/09/20 00:05:21;;;;;;;4.13;1.17;;;13.30;99.90;;;;;;5074914;28;20024;-62
2023/09/20 00:07:48;;;;;;;2.28;0.90;;;13.30;99.90;;;;;;5107617;28;20059;-62
2023/09/20 00:10:15;;;;;;;0.88;0.70;;;13.30;99.90;;;;;;5074621;28;20079;-63
2023/09/20 00:12:41;;;;;;;1.80;0.93;;;13.30;99.90;;;;;;5074322;28;20391;-63
2023/09/20 00:15:08;;;;;;;3.13;1.23;;;13.30;99.90;;;;;;5073515;28;20097;-62
2023/09/20 00:17:34;;;;;;;2.10;0.88;;;13.30;99.90;;;;;;5056657;28;20039;-63
2023/09/20 00:20:33;;;;;;;6.90;1.58;;;13.20;99.90;;;;;;5072878;28;20028;-62
2023/09/20 00:22:52;;;;;;;3.10;0.93;;;13.20;99.90;;;;;;5071873;28;20041;-62
2023/09/20 00:25:19;;;;;;;2.97;1.05;;;13.20;99.90;;;;;;5074133;28;20384;-62
2023/09/20 00:27:47;;;;;;;1.33;1.20;;;13.20;99.90;;;;;;5107667;28;20073;-63
2023/09/20 00:30:15;;;;;;;2.55;1.08;;;13.10;99.90;;;;;;5074172;28;20456;-62
2023/09/20 00:32:41;;;;;;;3.60;1.10;;;13.10;99.90;;;;;;5106933;28;20029;-62
2023/09/20 00:35:12;;;;;;;1.73;1.30;;;13.10;99.90;;;;;;5066295;28;20037;-62
2023/09/20 00:37:42;;;;;;;1.40;1.00;;;13.00;99.90;;;;;;5054156;28;20106;-63
2023/09/20 00:40:15;;;;;;;3.35;1.10;;;13.00;99.90;;;;;;5053943;28;20025;-62
2023/09/20 00:42:49;;;;;;;2.85;1.98;;;13.00;99.90;;;;;;5036590;28;20029;-62
2023/09/20 00:45:15;;;;;;;4.00;1.40;;;12.90;99.90;;;;;;5054358;28;20103;-62
2023/09/20 00:47:47;;;;;;;2.55;1.20;;;12.90;99.90;;;;;;5054128;28;20039;-62
2023/09/20 00:50:14;;;;;;;6.43;1.20;;;12.90;99.90;;;;;;5036220;28;20025;-63
2023/09/20 00:52:41;;;;;;;2.10;1.10;;;12.90;99.90;;;;;;5054084;28;20021;-63
2023/09/20 00:55:11;;;;;;;2.53;1.20;;;12.80;99.90;;;;;;5054330;28;20032;-62
2023/09/20 00:57:37;;;;;;;2.90;1.40;;;12.80;99.90;;;;;;5053816;28;20086;-62
2023/09/20 01:00:10;;;;;;;2.47;1.27;;;12.80;99.90;;;;;;5053992;28;20424;-62
2023/09/20 01:02:36;;;;;;;5.78;1.00;;;12.90;99.90;;;;;;5036244;28;20092;-62
2023/09/20 01:05:04;;;;;;;5.93;1.27;;;12.80;99.90;;;;;;5036093;28;20029;-62
2023/09/20 01:07:30;;;;;;;1.48;0.93;;;12.80;99.90;;;;;;5035996;28;20025;-62
2023/09/20 01:09:56;;;;;;;1.52;1.10;;;12.80;99.90;;;;;;5054144;28;20025;-62
2023/09/20 01:12:22;;;;;;;3.33;1.23;;;12.70;99.90;;;;;;5053755;28;20025;-62
2023/09/20 01:14:48;;;;;;;4.13;1.27;;;12.70;99.90;;;;;;5053780;28;20021;-62
2023/09/20 01:17:14;;;;;;;2.03;1.10;;;12.70;99.90;;;;;;5054110;28;20025;-64
2023/09/20 01:19:40;;;;;;;1.98;1.20;;;12.70;99.90;;;;;;5053626;28;20154;-62
2023/09/20 01:22:05;;;;;;;6.03;1.58;;;12.70;99.90;;;;;;5053684;28;20544;-62
2023/09/20 01:24:33;;;;;;;2.95;1.30;;;12.70;99.90;;;;;;5053750;28;20021;-62
2023/09/20 01:27:03;;;;;;;3.83;1.20;;;12.70;99.90;;;;;;5053799;28;20025;-62
2023/09/20 01:29:29;;;;;;;3.20;1.30;;;12.70;99.90;;;;;;5053833;28;20021;-62
2023/09/20 01:32:00;;;;;;;2.45;1.27;;;12.70;99.90;;;;;;5035399;28;20024;-62
2023/09/20 01:34:26;;;;;;;2.72;1.30;;;12.70;99.90;;;;;;5054294;28;20032;-63
2023/09/20 01:36:53;;;;;;;3.53;1.00;;;12.70;99.90;;;;;;5053633;28;20469;-63
2023/09/20 01:39:18;;;;;;;1.92;0.90;;;12.70;99.90;;;;;;5053626;28;20051;-62
2023/09/20 01:41:46;;;;;;;6.57;1.23;;;12.70;99.90;;;;;;5054695;28;20033;-62
2023/09/20 01:44:12;;;;;;;5.15;1.20;;;12.60;99.90;;;;;;5054432;28;20099;-62
2023/09/20 01:46:37;;;;;;;5.18;1.30;;;12.60;99.90;;;;;;5053312;28;20469;-62
2023/09/20 01:49:05;;;;;;;3.45;1.65;;;12.60;99.90;;;;;;5053209;28;20029;-63
2023/09/20 01:51:31;;;;;;;3.95;1.10;;;12.60;99.90;;;;;;5035501;28;20473;-62
2023/09/20 01:53:56;;;;;;;1.40;1.27;;;12.50;99.90;;;;;;5053199;28;20040;-62
2023/09/20 01:56:25;;;;;;;3.42;1.40;;;12.50;99.90;;;;;;5053055;28;20029;-62
2023/09/20 01:58:51;;;;;;;1.83;0.93;;;12.50;99.90;;;;;;5053950;28;20461;-62
2023/09/20 02:01:17;;;;;;;2.78;1.00;;;12.50;99.90;;;;;;5039357;28;20782;-62
2023/09/20 02:03:43;;;;;;;5.40;1.30;;;12.50;99.90;;;;;;5057173;28;20048;-62
2023/09/20 02:06:09;;;;;;;1.42;1.20;;;12.50;99.90;;;;;;5057070;28;20029;-62
2023/09/20 02:08:35;;;;;;;2.53;1.20;;;12.40;99.90;;;;;;5057179;28;20100;-62
2023/09/20 02:11:03;;;;;;;3.88;2.25;;;12.40;99.90;;;;;;5039297;28;20029;-63
2023/09/20 02:13:28;;;;;;;1.85;1.10;;;12.40;99.90;;;;;;5056807;28;20381;-62
2023/09/20 02:15:55;;;;;;;4.68;1.10;;;12.50;99.90;;;;;;5056650;28;20021;-62
2023/09/20 02:18:22;;;;;;;3.08;1.10;;;12.40;99.90;;;;;;5057051;28;20115;-62
2023/09/20 02:20:47;;;;;;;5.22;1.15;;;12.40;99.90;;;;;;5056832;28;20473;-62
2023/09/20 02:23:15;;;;;;;3.10;1.40;;;12.40;99.90;;;;;;5056734;28;20031;-62
2023/09/20 02:25:41;;;;;;;10.00;2.15;;;12.30;99.90;;;;;;5057144;28;20530;-62
2023/09/20 02:28:07;;;;;;;2.85;1.75;;;12.30;99.90;;;;;;5057044;28;20029;-62
2023/09/20 02:30:35;;;;;;;1.85;1.02;;;12.30;99.90;;;;;;5057284;28;20017;-62
2023/09/20 02:33:05;;;;;;;2.93;1.00;;;12.30;99.90;;;;;;5057552;28;20048;-62
2023/09/20 02:35:32;;;;;;;3.10;1.08;;;12.30;99.90;;;;;;5057896;28;20047;-63
2023/09/20 02:37:59;;;;;;;1.65;1.15;;;12.30;99.90;;;;;;5076151;28;20083;-62
2023/09/20 02:40:29;;;;;;;0.98;0.90;;;12.20;99.90;;;;;;5075865;28;20051;-62
2023/09/20 02:42:59;;;;;;;3.05;1.08;;;12.20;99.90;;;;;;5077901;28;20040;-63
2023/09/20 02:45:28;;;;;;;2.80;1.17;;;12.20;99.90;;;;;;5078234;28;20028;-63
2023/09/20 02:47:55;;;;;;;2.47;1.13;;;12.20;99.90;;;;;;5079178;28;20056;-63
2023/09/20 02:50:23;;;;;;;4.35;1.27;;;12.20;99.90;;;;;;5080440;28;20035;-63
2023/09/20 02:52:51;;;;;;;4.22;1.33;;;12.10;99.90;;;;;;5080869;28;20021;-62
2023/09/20 02:55:17;;;;;;;2.65;1.10;;;12.10;99.90;;;;;;5079802;28;20052;-63
2023/09/20 02:57:44;;;;;;;4.65;1.35;;;12.10;99.90;;;;;;5079476;28;20039;-62
2023/09/20 03:00:15;;;;;;;3.00;1.13;;;12.00;99.90;;;;;;5078243;28;20427;-62
2023/09/20 03:02:52;;;;;;;2.13;1.35;;;12.00;99.90;;;;;;5080091;28;20020;-62
2023/09/20 03:05:25;;;;;;;1.70;1.35;;;12.00;99.90;;;;;;5079988;28;20086;-63
2023/09/20 03:07:51;;;;;;;1.48;1.10;;;12.00;99.90;;;;;;5079372;28;20025;-62
2023/09/20 03:10:21;;;;;;;3.05;1.50;;;12.00;99.90;;;;;;5080126;28;20032;-63
2023/09/20 03:12:48;;;;;;;2.90;1.40;;;11.90;99.90;;;;;;5080426;28;20017;-62
2023/09/20 03:15:21;;;;;;;2.58;1.25;;;11.90;99.90;;;;;;5080971;28;20031;-62
2023/09/20 03:17:48;;;;;;;2.15;1.60;;;11.90;99.90;;;;;;5078696;28;20036;-63
2023/09/20 03:20:18;;;;;;;5.38;1.42;;;11.80;99.90;;;;;;5079728;28;20051;-62
2023/09/20 03:22:44;;;;;;;4.80;1.73;;;11.80;99.90;;;;;;5081676;28;20021;-63
2023/09/20 03:25:13;;;;;;;4.60;1.08;;;11.80;99.90;;;;;;5082827;28;20063;-63
2023/09/20 03:27:42;;;;;;;2.70;1.60;;;11.80;99.90;;;;;;5081995;28;20025;-63
2023/09/20 03:30:10;;;;;;;3.75;1.40;;;11.80;99.90;;;;;;5085390;28;20025;-63
2023/09/20 03:32:36;;;;;;;4.00;1.60;;;11.80;99.90;;;;;;5085035;28;20480;-63
2023/09/20 03:35:02;;;;;;;5.32;1.42;;;11.80;99.90;;;;;;5078754;28;20104;-62
2023/09/20 03:37:32;;;;;;;3.38;1.52;;;11.80;99.90;;;;;;5064672;28;20440;-63
2023/09/20 03:39:58;;;;;;;2.80;1.42;;;11.80;99.90;;;;;;5061390;28;20025;-66
2023/09/20 03:42:24;;;;;;;7.85;1.60;;;11.80;99.90;;;;;;5042593;28;20025;-62
2023/09/20 03:44:50;;;;;;;3.08;1.40;;;11.80;99.90;;;;;;5041147;28;20112;-62
2023/09/20 03:47:16;;;;;;;1.50;1.40;;;11.80;99.90;;;;;;5058295;28;20029;-62
2023/09/20 03:49:42;;;;;;;2.53;1.33;;;11.80;99.90;;;;;;5040415;28;20025;-62
2023/09/20 03:52:08;;;;;;;2.88;1.33;;;11.70;99.90;;;;;;5059386;28;20021;-62
2023/09/20 03:54:33;;;;;;;5.13;1.30;;;11.70;99.90;;;;;;5040174;28;20054;-62
2023/09/20 03:56:59;;;;;;;2.08;1.40;;;11.70;99.90;;;;;;5039598;28;20066;-62
2023/09/20 03:59:26;;;;;;;3.45;1.60;;;11.70;99.90;;;;;;5056285;28;20033;-62
2023/09/20 04:01:52;;;;;;;4.57;1.58;;;11.70;99.90;;;;;;5056267;28;20025;-62
2023/09/20 04:04:18;;;;;;;4.13;1.27;;;11.60;99.90;;;;;;5055857;28;20029;-63
2023/09/20 04:06:47;;;;;;;5.45;1.35;;;11.60;99.90;;;;;;5037736;28;20102;-63
2023/09/20 04:09:12;;;;;;;2.42;1.92;;;11.60;99.90;;;;;;5055364;28;20041;-61
2023/09/20 04:11:41;;;;;;;2.10;1.90;;;11.60;99.90;;;;;;5037283;28;20029;-61
2023/09/20 04:14:08;;;;;;;5.28;1.75;;;11.60;99.90;;;;;;5037092;28;20032;-60
2023/09/20 04:16:36;;;;;;;3.45;2.00;;;11.60;99.90;;;;;;5054935;28;20166;-60
2023/09/20 04:19:02;;;;;;;5.00;1.90;;;11.70;99.90;;;;;;5054680;28;20358;-60
2023/09/20 04:21:28;;;;;;;1.80;1.50;;;11.70;99.90;;;;;;5036466;28;20036;-63
2023/09/20 04:23:53;;;;;;;2.17;1.77;;;11.70;99.90;;;;;;5055451;28;20029;-62
2023/09/20 04:26:19;;;;;;;4.25;1.50;;;11.70;99.90;;;;;;5054822;28;20029;-62
2023/09/20 04:28:44;;;;;;;7.15;1.42;;;11.70;99.90;;;;;;5054702;28;20427;-62
2023/09/20 04:31:10;;;;;;;2.78;1.58;;;11.70;99.90;;;;;;5054405;28;20040;-64
2023/09/20 04:33:38;;;;;;;4.90;1.83;;;11.60;99.90;;;;;;5036677;28;20025;-62
2023/09/20 04:36:04;;;;;;;3.40;1.65;;;11.60;99.90;;;;;;5054658;28;20056;-62
2023/09/20 04:38:31;;;;;;;2.45;1.80;;;11.60;99.90;;;;;;5037609;28;20036;-62
2023/09/20 04:40:59;;;;;;;3.90;1.70;;;11.60;99.90;;;;;;5036558;28;20421;-62
2023/09/20 04:43:25;;;;;;;3.03;1.48;;;11.60;99.90;;;;;;5054214;28;20129;-62
2023/09/20 04:45:51;;;;;;;3.25;1.50;;;11.60;99.90;;;;;;5054125;28;20128;-63
2023/09/20 04:48:17;;;;;;;2.22;1.90;;;11.60;99.90;;;;;;5036418;28;20083;-62
2023/09/20 04:50:42;;;;;;;2.58;1.75;;;11.50;99.90;;;;;;5053888;28;20033;-62
2023/09/20 04:53:08;;;;;;;1.80;1.42;;;11.60;99.90;;;;;;5053855;28;20021;-62
2023/09/20 04:55:34;;;;;;;2.30;1.58;;;11.50;99.90;;;;;;5054261;28;20342;-62
2023/09/20 04:58:00;;;;;;;5.35;1.65;;;11.60;99.90;;;;;;5054152;28;20120;-62
2023/09/20 05:00:33;;;;;;;5.28;1.48;;;11.50;99.90;;;;;;5056058;28;20029;-62
2023/09/20 05:03:00;;;;;;;3.95;1.70;;;11.50;99.90;;;;;;5058272;28;20021;-63
2023/09/20 05:05:26;;;;;;;5.50;1.63;;;11.50;99.90;;;;;;5058452;28;20033;-63
2023/09/20 05:07:52;;;;;;;6.07;2.00;;;11.60;99.90;;;;;;5040150;28;20093;-62
2023/09/20 05:10:18;;;;;;;2.25;1.75;;;11.50;99.90;;;;;;5057297;28;20044;-66
2023/09/20 05:12:44;;;;;;;3.42;1.73;;;11.50;99.90;;;;;;5057472;28;20449;-62
2023/09/20 05:15:13;;;;;;;1.98;1.70;;;11.50;99.90;;;;;;5059010;28;20082;-62
2023/09/20 05:17:39;;;;;;;6.28;1.90;;;11.60;99.90;;;;;;5064114;28;20036;-63
2023/09/20 05:20:06;;;;;;;4.85;1.65;;;11.60;99.90;;;;;;5055053;28;20044;-62
2023/09/20 05:22:34;;;;;;;2.97;1.55;;;11.60;99.90;;;;;;5036273;28;20036;-62
2023/09/20 05:24:59;;;;;;;4.50;1.80;;;11.60;99.90;;;;;;5035660;28;20029;-62
2023/09/20 05:27:25;;;;;;;4.03;1.58;;;11.60;99.90;;;;;;5053752;28;20518;-62
2023/09/20 05:29:50;;;;;;;2.53;1.63;;;11.60;99.90;;;;;;5053254;28;20040;-63
2023/09/20 05:32:17;;;;;;;5.22;2.30;;;11.70;99.90;;;;;;5053443;28;20056;-62
2023/09/20 05:34:46;;;;;;;3.15;1.75;;;11.70;99.90;;;;;;5055897;28;20109;-62
2023/09/20 05:37:12;;;;;;;;;;;11.70;99.90;;;;;;5058098;28;20017;-62
2023/09/20 05:39:38;;;;;;;5.35;1.73;;;11.80;99.90;;;;;;5057183;28;19965;-62
2023/09/20 05:42:05;;;;;;;10.90;1.70;;;11.80;99.90;;;;;;5039531;28;20029;-63
2023/09/20 05:44:31;;;;;;;4.43;1.70;;;12.00;99.90;;;;;;5057707;28;20136;-62
2023/09/20 05:46:58;;;;;;;3.53;1.60;;;12.30;99.90;;;;;;5057274;28;20025;-62
2023/09/20 05:49:24;;;;;;;2.67;1.67;;;12.60;99.90;;;;;;5057483;28;20033;-63
2023/09/20 05:51:52;;;;;;;4.32;2.38;;;13.00;99.90;;;;;;5039213;28;20033;-63
2023/09/20 05:54:21;;;;;;;3.43;1.63;;;13.30;99.90;;;;;;5039671;28;20028;-63
2023/09/20 05:56:47;;;;;;;5.53;1.27;;;13.70;99.90;;;;;;5039428;28;20032;-63
2023/09/20 05:59:17;;;;;;;4.78;1.50;;;14.00;99.90;;;;;;5056828;28;20029;-63
2023/09/20 06:01:42;;;;;;;0.85;0.70;;;14.40;99.90;;;;;;5056902;28;20108;-63
2023/09/20 06:04:11;;;;;;;2.17;1.05;;;14.70;99.90;;;;;;5057065;28;20113;-63
2023/09/20 06:06:37;;;;;;;2.55;0.60;;;14.90;99.90;;;;;;5039329;28;20029;-63
2023/09/20 06:09:04;;;;;;;2.35;0.88;;;15.30;99.90;;;;;;5056869;28;20040;-63
2023/09/20 06:11:30;;;;;;;7.00;1.00;;;15.60;99.90;;;;;;5056790;28;20021;-63
2023/09/20 06:13:55;;;;;;;2.60;0.98;;;15.70;99.90;;;;;;5056483;28;20522;-63
2023/09/20 06:16:22;;;;;;;3.38;1.20;;;16.00;99.90;;;;;;5038893;28;20025;-63
2023/09/20 06:18:51;;;;;;;4.03;1.27;;;16.20;99.90;;;;;;5056904;28;20025;-63
2023/09/20 06:21:20;;;;;;;3.67;0.80;;;16.60;99.90;;;;;;5056803;28;20021;-63
2023/09/20 06:23:46;;;;;;;2.20;0.77;;;16.70;99.90;;;;;;5038832;28;20392;-63
2023/09/20 06:26:12;;;;;;;5.80;1.40;;;16.90;99.90;;;;;;5039359;28;20116;-63
2023/09/20 06:28:42;;;;;;;5.40;1.00;;;16.90;99.90;;;;;;5056625;28;20028;-63
2023/09/20 06:31:13;;;;;;;1.08;0.80;;;17.00;99.90;;;;;;5056763;28;20029;-63
2023/09/20 06:33:46;;;;;;;1.80;0.93;;;17.30;99.90;;;;;;5038714;28;20033;-63
2023/09/20 06:36:22;;;;;;;2.38;0.80;;;17.40;99.90;;;;;;5056987;28;20045;-63
2023/09/20 06:38:49;;;;;;;2.10;0.85;;;17.50;99.90;;;;;;5056595;28;20096;-63
2023/09/20 06:41:15;;;;;;;3.28;0.60;;;17.40;99.90;;;;;;5038506;28;20043;-63
2023/09/20 06:43:41;;;;;;;4.13;0.70;;;17.50;99.90;;;;;;5056631;28;20025;-63
2023/09/20 06:46:08;;;;;;;2.05;0.70;;;17.50;99.90;;;;;;5056203;28;20075;-63
2023/09/20 06:48:33;;;;;;;2.35;0.93;;;17.60;99.90;;;;;;5056317;28;20036;-64
2023/09/20 06:51:00;;;;;;;4.35;0.93;;;17.60;99.90;;;;;;5056292;28;20416;-63
2023/09/20 06:53:25;;;;;;;2.67;0.90;;;18.00;99.90;;;;;;5056266;28;20033;-63
2023/09/20 06:55:51;;;;;;;2.85;0.85;;;18.30;99.90;;;;;;5056252;28;20029;-63
2023/09/20 06:58:17;;;;;;;4.25;0.90;;;18.70;99.90;;;;;;5056300;28;20037;-63
2023/09/20 07:00:43;;;;;;;1.50;0.63;;;19.00;99.90;;;;;;5056287;28;20033;-63
2023/09/20 07:03:10;;;;;;;2.30;0.90;;;19.50;99.90;;;;;;5055782;28;20354;-64
2023/09/20 07:05:36;;;;;;;1.58;0.60;;;20.00;99.90;;;;;;5055984;28;20052;-63
2023/09/20 07:08:03;;;;;;;9.13;0.90;;;20.50;99.90;;;;;;5038715;28;20029;-64
2023/09/20 07:10:29;;;;;;;1.55;0.60;;;20.90;99.90;;;;;;5056223;28;20461;-64
2023/09/20 07:12:55;;;;;;;2.25;0.80;;;21.30;99.90;;;;;;5055813;28;20377;-63
2023/09/20 07:15:24;;;;;;;1.45;0.70;;;21.70;99.90;;;;;;5037932;28;20025;-64
2023/09/20 07:17:58;;;;;;;1.38;0.70;;;21.90;99.90;;;;;;5055947;28;20040;-64
2023/09/20 07:20:24;;;;;;;3.92;1.13;;;22.30;99.90;;;;;;5056006;28;20029;-61
2023/09/20 07:22:51;;;;;;;2.17;0.80;;;22.60;99.90;;;;;;5055947;28;20028;-61
2023/09/20 07:25:20;;;;;;;1.52;0.75;;;22.90;99.90;;;;;;5055890;28;20044;-61
2023/09/20 07:27:47;;;;;;;2.00;0.70;;;23.20;99.90;;;;;;5055863;28;20029;-61
2023/09/20 07:30:18;;;;;;;2.00;0.93;;;23.30;99.90;;;;;;5037720;28;20025;-61
2023/09/20 07:32:52;;;;;;;2.40;0.85;;;23.80;98.90;;;;;;5055612;28;20108;-61
2023/09/20 07:35:27;;;;;;;1.98;1.13;;;24.30;97.00;;;;;;5055209;28;20080;-61
2023/09/20 07:37:57;;;;;;;5.30;1.00;;;24.70;95.70;;;;;;5055590;28;20375;-62
2023/09/20 07:40:35;;;;;;;1.77;0.82;;;25.00;95.20;;;;;;5055210;28;20075;-62
2023/09/20 07:43:04;;;;;;;7.32;0.82;;;25.10;94.90;;;;;;5055481;28;20021;-62
2023/09/20 07:45:38;;;;;;;2.65;1.00;;;25.30;94.10;;;;;;5055254;28;20379;-62
2023/09/20 07:48:13;;;;;;;2.40;0.98;;;25.70;93.60;;;;;;5054812;28;20029;-62
2023/09/20 07:50:50;;;;;;;4.25;0.82;;;26.00;92.70;;;;;;5054935;28;20469;-62
2023/09/20 07:53:20;;;;;;;0.88;0.55;;;26.30;91.70;;;;;;5055205;28;20083;-62
2023/09/20 07:56:09;;;;;;;2.55;0.90;;;26.50;90.60;;;;;;5037008;28;20468;-62
2023/09/20 07:58:40;;;;;;;3.03;1.00;;;27.00;88.50;;;;;;5054969;28;20108;-62
2023/09/20 08:01:21;;;;;;;2.40;0.88;;;27.20;87.20;;;;;;5037077;28;20123;-62
2023/09/20 08:03:51;;;;;;;3.40;0.70;;;27.60;86.20;;;;;;5055036;28;20151;-62
2023/09/20 08:06:37;;;;;;;1.45;0.63;;;28.00;81.80;;;;;;5054853;28;20102;-62
2023/09/20 08:09:04;;;;;;;1.20;0.60;;;28.30;80.00;;;;;;5054139;28;20033;-62
2023/09/20 08:11:31;;;;;;;1.48;0.90;;;28.40;79.30;;;;;;5054933;28;20025;-62
2023/09/20 08:13:59;;;;;;;1.05;0.57;;;28.50;77.20;;;;;;5054877;28;20032;-62
2023/09/20 08:16:28;;;;;;;2.38;0.85;;;28.60;75.00;;;;;;5054610;28;20060;-62
2023/09/20 08:19:04;;;;;;;1.58;0.98;;;28.60;74.00;;;;;;5054921;28;20075;-62
2023/09/20 08:21:33;;;;;;;2.03;0.90;;;28.80;72.90;;;;;;5054831;28;20095;-64
2023/09/20 09:00:24;;;;;;;1.13;0.90;;;30.80;56.10;;;;;;5053986;28;20608;-64
2023/09/20 09:02:57;;;;;;;2.17;0.60;;;31.50;55.50;;;;;;5054123;28;20025;-64
2023/09/20 09:05:25;;;;;;;0.90;0.65;;;31.60;55.90;;;;;;5054613;28;20457;-64
2023/09/20 09:07:51;;;;;;;;;;;32.50;53.60;;;;;;5054209;28;20025;-64
2023/09/20 09:10:18;;;;;;;0.43;0.43;;;32.70;52.30;;;;;;5054048;28;20428;-64
2023/09/20 09:12:44;;;;;;;0.93;0.43;;;32.70;51.80;;;;;;5054152;28;20104;-64
2023/09/20 09:15:11;;;;;;;1.17;0.60;;;32.30;51.60;;;;;;5053860;28;20108;-64
2023/09/20 09:17:43;;;;;;;0.73;0.40;;;32.10;52.40;;;;;;5053503;28;20401;-64
2023/09/20 09:20:11;;;;;;;1.20;0.38;;;31.70;52.80;;;;;;5053703;28;20060;-64
2023/09/20 09:22:41;;;;;;;2.47;0.95;;;32.50;52.80;;;;;;5053607;28;20057;-64
2023/09/20 09:25:16;;;;;;;4.63;0.60;;;33.20;51.80;;;;;;5053684;28;20040;-65
2023/09/20 09:27:43;;;;;;;0.63;0.55;;;33.30;50.80;;;;;;5053778;28;20377;-64
2023/09/20 09:30:11;;;;;;;0.57;0.55;;;33.30;50.10;;;;;;5053744;28;20029;-64
2023/09/20 09:32:38;;;;;;;1.13;0.60;;;33.60;49.60;;;;;;5035680;28;20120;-64
2023/09/20 09:35:05;;;;;;;1.40;0.70;;;33.80;49.00;;;;;;5053563;28;20048;-64
2023/09/20 09:37:32;;;;;;;0.80;0.50;;;34.20;48.90;;;;;;5035473;28;20056;-64
2023/09/20 09:40:05;;;;;;;2.13;0.70;;;33.70;48.30;;;;;;5053610;28;20041;-64
2023/09/20 09:42:32;;;;;;;2.78;0.70;;;32.40;49.40;;;;;;5053728;28;20032;-64
2023/09/20 09:44:58;;;;;;;1.25;0.75;;;32.30;49.60;;;;;;5035642;28;20116;-64
2023/09/20 09:47:24;;;;;;;5.93;0.75;;;32.00;50.40;;;;;;5053653;28;20025;-64
2023/09/20 09:49:52;;;;;;;4.15;0.95;;;32.20;50.40;;;;;;5053433;28;20025;-64
2023/09/20 09:52:23;;;;;;;2.00;0.85;;;32.90;50.70;;;;;;5053507;28;20021;-65
2023/09/20 09:54:50;;;;;;;1.40;0.77;;;33.00;49.50;;;;;;5053662;28;20029;-64
2023/09/20 09:57:18;;;;;;;2.25;0.52;;;33.30;49.90;;;;;;5035639;28;20472;-65
2023/09/20 09:59:48;;;;;;;3.58;0.85;;;33.10;50.00;;;;;;5053715;28;20041;-65
2023/09/20 10:02:18;;;;;;;2.38;0.70;;;33.90;48.80;;;;;;5054278;28;20500;-65
2023/09/20 10:04:52;;;;;;;2.47;0.75;;;34.10;48.30;;;;;;5042186;28;20543;-65
2023/09/20 10:07:22;;;;;;;2.15;1.02;;;33.40;48.20;;;;;;5062088;28;20458;-65
2023/09/20 10:09:52;;;;;;;4.30;0.70;;;32.80;48.50;;;;;;5041676;28;20481;-64
2023/09/20 10:12:21;;;;;;;1.55;0.50;;;32.90;49.00;;;;;;5044598;28;20029;-64
2023/09/20 10:14:48;;;;;;;1.27;0.80;;;32.80;48.70;;;;;;5059120;28;20441;-64
2023/09/20 10:17:20;;;;;;;4.80;1.33;;;32.20;49.70;;;;;;5054242;28;20028;-64
2023/09/20 10:19:51;;;;;;;3.35;1.70;;;32.60;50.30;;;;;;5053906;28;20096;-65
2023/09/20 10:22:21;;;;;;;0.63;0.63;;;33.20;49.10;;;;;;5056921;28;20120;-65
2023/09/20 10:24:47;;;;;;;0.57;0.52;;;33.90;47.90;;;;;;5038851;28;20028;-64
2023/09/20 10:27:20;;;;;;;0.68;0.60;;;33.80;47.80;;;;;;5056869;28;20025;-64
2023/09/20 10:30:14;;;;;;;1.88;0.80;;;33.40;47.90;;;;;;5056764;28;20021;-64
2023/09/20 10:32:47;;;;;;;2.17;0.63;;;33.30;48.10;;;;;;5039126;28;20017;-64
2023/09/20 10:35:34;;;;;;;4.50;0.50;;;33.00;48.40;;;;;;5056511;28;20522;-64
2023/09/20 10:38:08;;;;;;;2.45;0.60;;;32.30;49.20;;;;;;5056594;28;20036;-64
2023/09/20 10:40:47;;;;;;;1.60;0.60;;;32.50;49.30;;;;;;5056290;28;20139;-64
2023/09/20 10:43:20;;;;;;;1.20;0.60;;;32.20;49.50;;;;;;5038647;28;20025;-64
2023/09/20 10:45:51;;;;;;;1.15;0.50;;;32.30;49.80;;;;;;5038582;28;20033;-64
2023/09/20 10:48:26;;;;;;;1.33;0.80;;;33.40;49.10;;;;;;5038319;28;20056;-64
2023/09/20 10:50:54;;;;;;;1.60;0.50;;;33.20;47.80;;;;;;5056540;28;20033;-64
2023/09/20 10:53:22;;;;;;;0.68;0.65;;;33.90;48.60;;;;;;5056389;28;20029;-64
2023/09/20 10:55:49;;;;;;;1.10;0.75;;;33.30;48.70;;;;;;5055989;28;20385;-64
2023/09/20 10:58:18;;;;;;;2.80;0.88;;;33.90;48.30;;;;;;5056206;28;20123;-64
2023/09/20 11:00:44;;;;;;;2.08;0.60;;;34.30;48.20;;;;;;5056133;28;20025;-65
2023/09/20 11:03:11;;;;;;;1.25;0.70;;;34.80;48.00;;;;;;5055952;28;20029;-65
2023/09/20 11:05:38;;;;;;;2.83;0.40;;;34.90;47.10;;;;;;5055782;28;20373;-64
2023/09/20 11:08:10;;;;;;;2.05;0.70;;;34.90;46.60;;;;;;5038163;28;20029;-64
2023/09/20 11:10:40;;;;;;;1.73;0.63;;;34.90;46.40;;;;;;5056132;28;20017;-64
2023/09/20 11:13:10;;;;;;;1.83;0.63;;;34.80;46.20;;;;;;5056148;28;20025;-64
2023/09/20 11:15:41;;;;;;;3.83;0.60;;;35.00;46.20;;;;;;5056415;28;20079;-64
2023/09/20 11:18:14;;;;;;;0.80;0.50;;;35.30;46.10;;;;;;5038481;28;20484;-65
2023/09/20 11:20:41;;;;;;;2.72;0.75;;;35.50;45.60;;;;;;5056454;28;20025;-64
2023/09/20 11:23:09;;;;;;;4.00;0.40;;;35.30;46.00;;;;;;5056344;28;20028;-65
2023/09/20 11:25:36;;;;;;;1.38;0.73;;;35.70;45.20;;;;;;5038280;28;20484;-65
2023/09/20 11:28:02;;;;;;;1.08;0.60;;;35.90;44.70;;;;;;5056461;28;20021;-65
2023/09/20 11:30:29;;;;;;;0.90;0.50;;;36.20;45.00;;;;;;5055663;28;20024;-64
2023/09/20 11:32:56;;;;;;;2.03;0.70;;;36.80;44.50;;;;;;5036700;28;20025;-65
2023/09/20 11:35:35;;;;;;;0.82;0.65;;;36.90;44.20;;;;;;5055356;28;20451;-65
2023/09/20 11:38:05;;;;;;;1.98;0.57;;;36.50;43.90;;;;;;5055321;28;20114;-65
2023/09/20 11:40:32;;;;;;;0.63;0.60;;;36.50;44.80;;;;;;5055843;28;20059;-64
2023/09/20 11:42:58;;;;;;;1.05;0.73;;;35.60;45.80;;;;;;5055344;28;20120;-64
2023/09/20 11:45:25;;;;;;;1.33;0.70;;;35.20;46.40;;;;;;5054971;28;20427;-64
2023/09/20 11:47:52;;;;;;;1.27;0.73;;;35.50;46.30;;;;;;5055581;28;20025;-64
2023/09/20 11:50:17;;;;;;;1.17;0.55;;;35.20;46.60;;;;;;5055144;28;20025;-64
2023/09/20 11:52:48;;;;;;;1.23;0.77;;;35.70;46.20;;;;;;5055103;28;20040;-65
2023/09/20 11:55:15;;;;;;;1.65;0.63;;;36.20;46.60;;;;;;5054858;28;20033;-59
2023/09/20 11:57:48;;;;;;;1.98;0.98;;;36.60;45.70;;;;;;5055025;28;20350;-58
2023/09/20 12:00:18;;;;;;;3.03;0.90;;;36.20;46.60;;;;;;5054603;28;20033;-59
2023/09/20 12:02:45;;;;;;;2.60;1.05;;;35.70;47.70;;;;;;5054965;28;20026;-59
2023/09/20 12:05:11;;;;;;;3.67;1.10;;;35.30;47.80;;;;;;5037057;28;20032;-58
2023/09/20 12:07:37;;;;;;;2.60;1.00;;;34.50;48.60;;;;;;5054743;28;20116;-58
2023/09/20 12:10:03;;;;;;;1.48;0.93;;;34.10;49.80;;;;;;5036839;28;20064;-58
2023/09/20 12:12:31;;;;;;;2.28;0.93;;;34.10;50.00;;;;;;5054292;28;20461;-58
2023/09/20 12:14:57;;;;;;;5.35;1.08;;;33.00;51.70;;;;;;5036796;28;20025;-58
2023/09/20 12:17:23;;;;;;;5.25;0.80;;;33.00;52.30;;;;;;5054493;28;20078;-58
2023/09/20 12:19:48;;;;;;;3.08;1.00;;;33.60;52.10;;;;;;5054456;28;20040;-58
2023/09/20 12:22:14;;;;;;;1.88;0.80;;;34.10;51.80;;;;;;5054223;28;20111;-58
2023/09/20 12:24:40;;;;;;;2.25;0.95;;;33.80;51.40;;;;;;5054688;28;20017;-58
2023/09/20 12:27:05;;;;;;;2.05;0.90;;;34.10;51.90;;;;;;5054738;28;20036;-58
2023/09/20 12:29:32;;;;;;;5.20;0.80;;;33.80;51.50;;;;;;5036592;28;20025;-59
2023/09/20 12:31:57;;;;;;;2.60;1.25;;;34.00;52.60;;;;;;5054410;28;20025;-58
2023/09/20 12:34:23;;;;;;;4.38;1.20;;;33.60;52.10;;;;;;5036173;28;20021;-58
2023/09/20 12:36:49;;;;;;;12.35;1.67;;;33.60;52.70;;;;;;5037048;28;20032;-58
2023/09/20 12:39:16;;;;;;;5.22;1.63;;;34.00;52.80;;;;;;5053798;28;20024;-58
2023/09/20 12:41:42;;;;;;;6.15;2.17;;;33.90;52.10;;;;;;5036360;28;20094;-58
2023/09/20 12:44:08;;;;;;;2.47;1.20;;;34.20;52.70;;;;;;5054194;28;20025;-58
2023/09/20 12:46:36;;;;;;;5.28;0.93;;;34.60;51.50;;;;;;5036190;28;20448;-58
2023/09/20 12:49:04;;;;;;;5.00;1.13;;;33.70;51.90;;;;;;5054044;28;20458;-59
2023/09/20 12:51:30;;;;;;;4.45;1.52;;;33.50;52.30;;;;;;5054130;28;20354;-60
2023/09/20 12:53:56;;;;;;;2.55;1.30;;;33.10;53.00;;;;;;5053639;28;20487;-59
2023/09/20 12:56:22;;;;;;;6.47;1.38;;;33.30;53.20;;;;;;5054260;28;20061;-64
2023/09/20 12:58:50;;;;;;;6.93;1.80;;;33.40;53.00;;;;;;5035821;28;20408;-64
2023/09/20 13:01:16;;;;;;;2.88;1.02;;;33.80;52.80;;;;;;5053862;28;20032;-64
2023/09/20 13:03:43;;;;;;;4.18;1.45;;;34.30;52.30;;;;;;5054422;28;20029;-64
2023/09/20 13:06:13;;;;;;;3.75;1.20;;;34.10;51.90;;;;;;5053641;28;20025;-64
2023/09/20 13:08:39;;;;;;;3.80;1.30;;;34.70;51.80;;;;;;5036111;28;20028;-64
2023/09/20 13:11:07;;;;;;;2.40;1.25;;;34.80;51.00;;;;;;5036010;28;20415;-64
2023/09/20 13:13:34;;;;;;;7.05;1.60;;;35.00;50.90;;;;;;5053933;28;20087;-64
2023/09/20 13:16:00;;;;;;;1.90;1.20;;;35.20;50.50;;;;;;5036408;28;20136;-63
2023/09/20 13:18:28;;;;;;;4.70;0.95;;;35.50;49.20;;;;;;5035811;28;20028;-64
2023/09/20 13:20:58;;;;;;;3.10;1.10;;;35.40;49.50;;;;;;5053640;28;20033;-64
2023/09/20 13:23:25;;;;;;;3.33;1.40;;;35.20;49.20;;;;;;5053635;28;20548;-63
2023/09/20 13:25:52;;;;;;;6.35;1.30;;;35.00;49.80;;;;;;5053829;28;20044;-64
2023/09/20 13:28:18;;;;;;;2.15;1.00;;;35.30;49.00;;;;;;5053639;28;20021;-63